Time;durP1;ratioP1;P1;durP2;ratioP2;P2;SDS_P1;SDS_P2;PMS_P1;PMS_P2;Temp;Humidity;BMP_temperature;BMP_pressure;BME280_temperature;BME280_humidity;BME280_pressure;Samples;Min_cycle;Max_cycle;Signal;HPM_P1;HPM_P2
2021/09/08 00:01:45;;;;;;;18.25;14.10;;;16.50;99.90;;;;;;5030400;28;20052;-67
2021/09/08 00:04:12;;;;;;;19.48;13.07;;;16.50;99.90;;;;;;5028296;28;20134;-67
2021/09/08 00:06:40;;;;;;;21.15;14.50;;;16.50;99.90;;;;;;5030970;28;20033;-67
2021/09/08 00:09:07;;;;;;;18.38;13.80;;;16.50;99.90;;;;;;5028553;28;20515;-67
2021/09/08 00:11:34;;;;;;;20.45;13.40;;;16.50;99.90;;;;;;5031430;28;20044;-67
2021/09/08 00:14:02;;;;;;;17.98;13.10;;;16.50;99.90;;;;;;5012787;28;20053;-67
2021/09/08 00:16:29;;;;;;;21.70;13.75;;;16.50;99.90;;;;;;5020122;28;20273;-67
2021/09/08 00:18:56;;;;;;;23.88;14.15;;;16.50;99.90;;;;;;5029218;28;20409;-68
2021/09/08 00:21:24;;;;;;;18.90;13.43;;;16.50;99.90;;;;;;5025122;28;20201;-67
2021/09/08 00:23:51;;;;;;;15.82;12.48;;;16.50;99.90;;;;;;5022362;28;20041;-67
2021/09/08 00:26:18;;;;;;;18.40;12.52;;;16.40;99.90;;;;;;5027401;28;20041;-67
2021/09/08 00:28:46;;;;;;;22.55;14.05;;;16.40;99.90;;;;;;5021099;28;20452;-67
2021/09/08 00:31:13;;;;;;;16.67;13.02;;;16.40;99.90;;;;;;5028986;28;20053;-67
2021/09/08 00:33:40;;;;;;;17.00;13.30;;;16.40;99.90;;;;;;5028990;28;20033;-67
2021/09/08 00:36:08;;;;;;;19.83;12.95;;;16.30;99.90;;;;;;5028475;28;20065;-67
2021/09/08 00:38:36;;;;;;;18.25;13.63;;;16.30;99.90;;;;;;5012298;28;20057;-67
2021/09/08 00:41:05;;;;;;;19.65;13.85;;;16.30;99.90;;;;;;5029134;28;20042;-67
2021/09/08 00:43:32;;;;;;;18.15;13.63;;;16.20;99.90;;;;;;5028513;28;20053;-67
2021/09/08 00:46:01;;;;;;;18.23;12.75;;;16.20;99.90;;;;;;5029478;28;20060;-67
2021/09/08 00:48:29;;;;;;;22.50;14.40;;;16.20;99.90;;;;;;5029450;28;20057;-67
2021/09/08 00:50:57;;;;;;;20.45;14.80;;;16.10;99.90;;;;;;5027330;28;20045;-67
2021/09/08 00:53:26;;;;;;;19.90;14.23;;;16.10;99.90;;;;;;5030012;28;20049;-67
2021/09/08 00:55:55;;;;;;;19.75;13.27;;;16.00;99.90;;;;;;5028212;28;20045;-67
2021/09/08 00:58:25;;;;;;;22.55;14.38;;;16.00;99.90;;;;;;5028665;28;20045;-67
2021/09/08 01:00:53;;;;;;;21.48;15.32;;;15.90;99.90;;;;;;5014716;28;20033;-67
2021/09/08 01:03:21;;;;;;;22.77;15.10;;;15.90;99.90;;;;;;5025164;28;20073;-67
2021/09/08 01:05:49;;;;;;;21.55;15.35;;;15.90;99.90;;;;;;5028321;28;20418;-67
2021/09/08 01:08:17;;;;;;;21.38;14.18;;;15.90;99.90;;;;;;5029116;28;20128;-67
2021/09/08 01:10:46;;;;;;;19.95;14.02;;;15.80;99.90;;;;;;5029640;28;20571;-67
2021/09/08 01:13:14;;;;;;;19.60;13.18;;;15.80;99.90;;;;;;5029466;28;20156;-67
2021/09/08 01:15:57;;;;;;;23.02;14.45;;;15.70;99.90;;;;;;5010583;28;20038;-67
2021/09/08 01:18:25;;;;;;;20.90;13.63;;;15.70;99.90;;;;;;5027674;28;20543;-67
2021/09/08 01:20:52;;;;;;;22.30;15.52;;;15.70;99.90;;;;;;5016443;28;20045;-67
2021/09/08 01:23:20;;;;;;;18.23;13.80;;;15.60;99.90;;;;;;5017368;28;20468;-67
2021/09/08 01:25:48;;;;;;;19.20;13.75;;;15.70;99.90;;;;;;5027936;28;20041;-67
2021/09/08 01:28:15;;;;;;;20.25;14.40;;;15.70;99.90;;;;;;5028776;28;20048;-67
2021/09/08 01:30:43;;;;;;;20.67;14.68;;;15.60;99.90;;;;;;5025995;28;20412;-68
2021/09/08 01:33:12;;;;;;;20.33;14.63;;;15.60;99.90;;;;;;5027316;28;20480;-67
2021/09/08 01:35:40;;;;;;;21.10;14.00;;;15.60;99.90;;;;;;5029242;28;20403;-67
2021/09/08 01:38:08;;;;;;;19.98;13.45;;;15.60;99.90;;;;;;5027200;28;20052;-67
2021/09/08 01:40:35;;;;;;;20.92;14.43;;;15.60;99.90;;;;;;5024472;28;20112;-67
2021/09/08 01:43:02;;;;;;;20.33;14.70;;;15.60;99.90;;;;;;5023851;28;20045;-67
2021/09/08 01:45:30;;;;;;;21.08;14.07;;;15.60;99.90;;;;;;5026191;28;20496;-68
2021/09/08 01:47:57;;;;;;;19.42;14.10;;;15.50;99.90;;;;;;5026448;28;20056;-67
2021/09/08 01:50:25;;;;;;;19.85;14.25;;;15.50;99.90;;;;;;5028870;28;20437;-67
2021/09/08 01:52:52;;;;;;;19.90;13.93;;;15.50;99.90;;;;;;5026464;28;20042;-68
2021/09/08 01:55:19;;;;;;;19.35;13.60;;;15.50;99.90;;;;;;5025028;28;20460;-67
2021/09/08 01:57:47;;;;;;;21.45;14.57;;;15.40;99.90;;;;;;5015135;28;20126;-67
2021/09/08 02:00:15;;;;;;;20.10;14.05;;;15.40;99.90;;;;;;5028019;28;20451;-67
2021/09/08 02:02:43;;;;;;;20.83;14.23;;;15.40;99.90;;;;;;5026387;28;20187;-67
2021/09/08 02:05:15;;;;;;;20.70;14.18;;;15.40;99.90;;;;;;5028455;28;20045;-67
2021/09/08 02:07:44;;;;;;;20.48;14.18;;;15.40;99.90;;;;;;5027617;28;20056;-67
2021/09/08 02:10:12;;;;;;;20.92;14.70;;;15.40;99.90;;;;;;5026013;28;20059;-67
2021/09/08 02:12:42;;;;;;;21.08;14.70;;;15.30;99.90;;;;;;5026988;28;20141;-67
2021/09/08 02:15:10;;;;;;;21.45;15.20;;;15.30;99.90;;;;;;5028076;28;20038;-67
2021/09/08 02:17:38;;;;;;;20.70;14.20;;;15.30;99.90;;;;;;5028365;28;20276;-67
2021/09/08 02:20:06;;;;;;;23.42;15.40;;;15.20;99.90;;;;;;5024142;28;20041;-67
2021/09/08 02:22:33;;;;;;;20.95;14.70;;;15.20;99.90;;;;;;5024643;28;20054;-67
2021/09/08 02:25:01;;;;;;;19.80;14.57;;;15.20;99.90;;;;;;5026652;28;20474;-67
2021/09/08 02:27:28;;;;;;;21.08;15.20;;;15.20;99.90;;;;;;5026485;28;20045;-67
2021/09/08 02:29:55;;;;;;;20.30;14.27;;;15.20;99.90;;;;;;5006736;28;20097;-68
2021/09/08 02:32:23;;;;;;;21.55;14.27;;;15.10;99.90;;;;;;5025660;28;20543;-67
2021/09/08 02:34:50;;;;;;;18.13;14.05;;;15.10;99.90;;;;;;5027530;28;20037;-67
2021/09/08 02:37:17;;;;;;;19.92;14.60;;;15.10;99.90;;;;;;5027429;28;20043;-67
2021/09/08 02:39:44;;;;;;;21.13;15.00;;;15.00;99.90;;;;;;5026262;28;20037;-67
2021/09/08 02:42:12;;;;;;;19.23;14.95;;;15.00;99.90;;;;;;5028496;28;20041;-67
2021/09/08 02:44:39;;;;;;;21.25;14.63;;;14.90;99.90;;;;;;5026123;28;20156;-67
2021/09/08 02:47:07;;;;;;;21.35;15.13;;;14.90;99.90;;;;;;5023097;28;20370;-67
2021/09/08 02:49:34;;;;;;;22.48;15.10;;;14.90;99.90;;;;;;5018823;28;20041;-67
2021/09/08 02:52:02;;;;;;;21.35;15.43;;;14.90;99.90;;;;;;5026167;28;20052;-68
2021/09/08 02:54:32;;;;;;;20.25;15.00;;;14.80;99.90;;;;;;5016498;28;20122;-67
2021/09/08 02:56:59;;;;;;;18.80;14.27;;;14.90;99.90;;;;;;5025737;28;20041;-67
2021/09/08 02:59:27;;;;;;;24.45;15.48;;;14.80;99.90;;;;;;5037745;28;20037;-67
2021/09/08 03:01:54;;;;;;;19.50;14.45;;;14.90;99.90;;;;;;5004839;28;20038;-67
2021/09/08 03:04:22;;;;;;;22.00;15.73;;;14.80;99.90;;;;;;5027939;28;20046;-67
2021/09/08 03:06:49;;;;;;;19.90;15.02;;;14.80;99.90;;;;;;5028228;28;20742;-67
2021/09/08 03:09:16;;;;;;;22.65;16.02;;;14.80;99.90;;;;;;5027358;28;20046;-67
2021/09/08 03:11:44;;;;;;;21.63;15.00;;;14.80;99.90;;;;;;5027777;28;20069;-67
2021/09/08 03:14:11;;;;;;;20.90;14.75;;;14.70;99.90;;;;;;5024599;28;20514;-67
2021/09/08 03:16:38;;;;;;;20.35;15.52;;;14.70;99.90;;;;;;5026340;28;20050;-67
2021/09/08 03:19:06;;;;;;;22.83;15.65;;;14.70;99.90;;;;;;5025841;28;20042;-68
2021/09/08 03:21:33;;;;;;;23.63;16.17;;;14.60;99.90;;;;;;5028243;28;20510;-67
2021/09/08 03:24:00;;;;;;;21.08;15.55;;;14.60;99.90;;;;;;5026181;28;20080;-68
2021/09/08 03:26:28;;;;;;;24.30;16.10;;;14.60;99.90;;;;;;5027213;28;20046;-68
2021/09/08 03:28:56;;;;;;;23.95;15.90;;;14.50;99.90;;;;;;5024926;28;20559;-68
2021/09/08 03:31:23;;;;;;;21.33;15.80;;;14.50;99.90;;;;;;5025799;28;20065;-68
2021/09/08 03:33:50;;;;;;;23.05;16.00;;;14.50;99.90;;;;;;5029647;28;20401;-68
2021/09/08 03:36:17;;;;;;;21.10;16.25;;;14.50;99.90;;;;;;5030665;28;20060;-68
2021/09/08 03:38:45;;;;;;;22.50;15.23;;;14.50;99.90;;;;;;5030551;28;20044;-68
2021/09/08 03:41:12;;;;;;;21.83;15.50;;;14.50;99.90;;;;;;5012213;28;20042;-68
2021/09/08 03:43:39;;;;;;;22.98;14.75;;;14.50;99.90;;;;;;5031506;28;20079;-68
2021/09/08 03:46:07;;;;;;;26.08;16.00;;;14.50;99.90;;;;;;5030594;28;20053;-68
2021/09/08 03:48:35;;;;;;;23.92;15.32;;;14.40;99.90;;;;;;5013084;28;20122;-68
2021/09/08 03:51:02;;;;;;;23.98;17.85;;;14.40;99.90;;;;;;5030613;28;20121;-68
2021/09/08 03:53:30;;;;;;;31.48;20.00;;;14.40;99.90;;;;;;5028713;28;20042;-68
2021/09/08 03:55:57;;;;;;;28.73;21.40;;;14.40;99.90;;;;;;5031961;28;20045;-68
2021/09/08 03:58:24;;;;;;;26.17;18.05;;;14.40;99.90;;;;;;5023570;28;20422;-68
2021/09/08 04:00:52;;;;;;;25.48;17.35;;;14.40;99.90;;;;;;5028676;28;20041;-68
2021/09/08 04:03:19;;;;;;;23.30;16.88;;;14.40;99.90;;;;;;5030561;28;20694;-68
2021/09/08 04:05:47;;;;;;;24.50;18.58;;;14.40;99.90;;;;;;5025670;28;20436;-68
2021/09/08 04:08:15;;;;;;;26.13;19.02;;;14.40;99.90;;;;;;5022606;28;20052;-68
2021/09/08 04:10:42;;;;;;;24.83;17.73;;;14.40;99.90;;;;;;5027380;28;20041;-68
2021/09/08 04:13:09;;;;;;;29.48;19.80;;;14.50;99.90;;;;;;5028456;28;20041;-68
2021/09/08 04:15:36;;;;;;;28.65;19.35;;;14.40;99.90;;;;;;5030488;28;20060;-68
2021/09/08 04:18:04;;;;;;;26.40;19.08;;;14.40;99.90;;;;;;5028549;28;20041;-68
2021/09/08 04:20:31;;;;;;;27.92;18.17;;;14.40;99.90;;;;;;5030089;28;20420;-68
2021/09/08 04:22:58;;;;;;;24.95;17.77;;;14.40;99.90;;;;;;5027823;28;20153;-67
2021/09/08 04:25:26;;;;;;;27.25;17.55;;;14.40;99.90;;;;;;5029835;28;20059;-67
2021/09/08 04:27:53;;;;;;;28.08;20.50;;;14.30;99.90;;;;;;5027380;28;20041;-67
2021/09/08 04:30:20;;;;;;;30.05;21.27;;;14.30;99.90;;;;;;5028691;28;20456;-67
2021/09/08 04:32:47;;;;;;;26.25;19.08;;;14.30;99.90;;;;;;5029088;28;20046;-67
2021/09/08 04:35:15;;;;;;;24.23;18.10;;;14.20;99.90;;;;;;5030922;28;20060;-67
2021/09/08 04:37:42;;;;;;;23.63;17.52;;;14.30;99.90;;;;;;5027104;28;20061;-67
2021/09/08 04:40:10;;;;;;;27.60;18.17;;;14.30;99.90;;;;;;5030888;28;20048;-67
2021/09/08 04:42:38;;;;;;;26.85;17.58;;;14.30;99.90;;;;;;5026441;28;20053;-67
2021/09/08 04:45:06;;;;;;;27.75;19.25;;;14.30;99.90;;;;;;5030562;28;20280;-67
2021/09/08 04:47:34;;;;;;;31.10;20.38;;;14.30;99.90;;;;;;5025153;28;20057;-67
2021/09/08 04:50:01;;;;;;;27.63;19.75;;;14.30;99.90;;;;;;5019114;28;20080;-67
2021/09/08 04:52:30;;;;;;;27.75;20.55;;;14.30;99.90;;;;;;5029353;28;20543;-67
2021/09/08 04:54:57;;;;;;;33.42;23.70;;;14.30;99.90;;;;;;5015377;28;20042;-67
2021/09/08 04:57:25;;;;;;;28.35;20.60;;;14.40;99.90;;;;;;5028088;28;20095;-67
2021/09/08 04:59:52;;;;;;;27.35;18.80;;;14.40;99.90;;;;;;5030168;28;20396;-67
2021/09/08 05:02:19;;;;;;;26.95;19.73;;;14.50;99.90;;;;;;5029281;28;20041;-68
2021/09/08 05:04:47;;;;;;;31.13;22.50;;;14.60;99.90;;;;;;5029221;28;20099;-68
2021/09/08 05:07:14;;;;;;;31.30;21.42;;;14.60;99.90;;;;;;5029108;28;20049;-68
2021/09/08 05:09:42;;;;;;;28.48;18.95;;;14.60;99.90;;;;;;5021962;28;20124;-68
2021/09/08 05:12:10;;;;;;;26.42;19.13;;;14.70;99.90;;;;;;5027695;28;20053;-68
2021/09/08 05:14:37;;;;;;;33.70;18.83;;;14.70;99.90;;;;;;5029643;28;20053;-68
2021/09/08 05:17:05;;;;;;;28.50;18.15;;;14.80;99.90;;;;;;5028776;28;20038;-68
2021/09/08 05:19:33;;;;;;;25.98;17.00;;;14.80;99.90;;;;;;5026860;28;20060;-68
2021/09/08 05:22:00;;;;;;;26.30;17.70;;;14.90;99.90;;;;;;5019778;28;20392;-68
2021/09/08 05:24:27;;;;;;;24.20;17.48;;;14.90;99.90;;;;;;5027018;28;20053;-68
2021/09/08 05:26:55;;;;;;;23.88;17.30;;;15.00;99.90;;;;;;5020224;28;20396;-68
2021/09/08 05:29:22;;;;;;;24.70;16.35;;;15.00;99.90;;;;;;5026058;28;20057;-68
2021/09/08 05:31:49;;;;;;;30.52;17.58;;;15.10;99.90;;;;;;5026871;28;20060;-68
2021/09/08 05:34:16;;;;;;;22.25;16.50;;;15.20;99.90;;;;;;5029181;28;20453;-68
2021/09/08 05:36:44;;;;;;;23.83;15.55;;;15.20;99.90;;;;;;5026918;28;20638;-68
2021/09/08 05:39:11;;;;;;;23.88;16.20;;;15.30;99.90;;;;;;5025260;28;20045;-68
2021/09/08 05:41:38;;;;;;;26.58;17.92;;;15.40;99.90;;;;;;5029691;28;20068;-68
2021/09/08 05:44:05;;;;;;;23.13;15.85;;;15.40;99.90;;;;;;5008634;28;20061;-68
2021/09/08 05:46:33;;;;;;;25.23;17.02;;;15.50;99.90;;;;;;5027790;28;20041;-67
2021/09/08 05:49:00;;;;;;;24.52;16.70;;;15.50;99.90;;;;;;5027523;28;20045;-67
2021/09/08 05:51:28;;;;;;;23.52;16.17;;;15.60;99.90;;;;;;5029690;28;20059;-67
2021/09/08 05:53:55;;;;;;;24.65;17.30;;;15.60;99.90;;;;;;5027270;28;20044;-68
2021/09/08 05:56:22;;;;;;;24.23;17.67;;;15.70;99.90;;;;;;5028144;28;20557;-67
2021/09/08 05:58:49;;;;;;;26.15;16.88;;;15.70;99.90;;;;;;5030225;28;20044;-67
2021/09/08 06:01:16;;;;;;;24.80;16.63;;;15.80;99.90;;;;;;5011961;28;20438;-67
2021/09/08 06:03:44;;;;;;;24.02;16.92;;;15.80;99.90;;;;;;5028112;28;20107;-68
2021/09/08 06:06:11;;;;;;;23.15;16.65;;;15.90;99.90;;;;;;5028497;28;20053;-68
2021/09/08 06:08:39;;;;;;;22.38;16.63;;;15.90;99.90;;;;;;5016389;28;20088;-68
2021/09/08 06:11:07;;;;;;;21.75;16.80;;;16.00;99.90;;;;;;5028357;28;20057;-68
2021/09/08 06:13:35;;;;;;;23.80;17.38;;;16.10;99.90;;;;;;5025780;28;20436;-68
2021/09/08 06:16:03;;;;;;;26.90;18.45;;;16.20;99.90;;;;;;5029188;28;20075;-69
2021/09/08 06:18:30;;;;;;;21.05;16.38;;;16.20;99.90;;;;;;5028454;28;20038;-68
2021/09/08 06:20:58;;;;;;;24.15;18.23;;;16.30;99.90;;;;;;5028187;28;20399;-68
2021/09/08 06:23:25;;;;;;;22.08;16.42;;;16.40;99.90;;;;;;5020339;28;20042;-68
2021/09/08 06:26:04;;;;;;;23.80;16.75;;;16.50;99.90;;;;;;5027515;28;20065;-68
2021/09/08 06:28:31;;;;;;;24.08;17.13;;;16.60;99.90;;;;;;5028021;28;20494;-68
2021/09/08 06:30:59;;;;;;;23.75;16.83;;;16.60;99.90;;;;;;5026686;28;20299;-68
2021/09/08 06:33:26;;;;;;;25.80;17.98;;;16.70;99.90;;;;;;5025712;28;20060;-68
2021/09/08 06:35:53;;;;;;;24.40;17.25;;;16.80;99.90;;;;;;5020821;28;20043;-68
2021/09/08 06:38:20;;;;;;;26.20;19.05;;;16.80;99.90;;;;;;5017693;28;20045;-68
2021/09/08 06:40:51;;;;;;;24.75;17.63;;;16.90;99.90;;;;;;5026786;28;20052;-68
2021/09/08 06:43:18;;;;;;;20.92;16.00;;;17.00;99.90;;;;;;5026205;28;20079;-68
2021/09/08 06:45:46;;;;;;;22.38;17.20;;;17.10;99.90;;;;;;5025767;28;20043;-68
2021/09/08 06:48:13;;;;;;;24.52;16.58;;;17.20;99.90;;;;;;5024696;28;20049;-68
2021/09/08 06:50:40;;;;;;;26.48;19.13;;;17.30;99.90;;;;;;5026440;28;20308;-68
2021/09/08 06:53:07;;;;;;;26.00;17.95;;;17.40;99.90;;;;;;5025422;28;20045;-68
2021/09/08 06:55:35;;;;;;;21.02;15.90;;;17.50;99.90;;;;;;5027407;28;20163;-68
2021/09/08 06:58:02;;;;;;;20.23;15.07;;;17.60;99.90;;;;;;5020525;28;20046;-68
2021/09/08 07:00:29;;;;;;;22.10;16.10;;;17.70;99.90;;;;;;5022908;28;20041;-68
2021/09/08 07:02:57;;;;;;;26.73;20.15;;;17.80;99.90;;;;;;5028071;28;20073;-69
2021/09/08 07:05:25;;;;;;;27.88;19.00;;;17.90;99.90;;;;;;5033804;28;20053;-67
2021/09/08 07:07:53;;;;;;;23.02;15.77;;;18.00;99.90;;;;;;5022272;28;20049;-68
2021/09/08 07:10:21;;;;;;;21.13;15.43;;;18.10;99.90;;;;;;5030535;28;20078;-68
2021/09/08 07:12:48;;;;;;;22.50;16.42;;;18.20;99.90;;;;;;5010329;28;20054;-68
2021/09/08 07:15:16;;;;;;;24.13;17.27;;;18.30;99.90;;;;;;5026018;28;20049;-68
2021/09/08 07:17:43;;;;;;;27.08;17.98;;;18.40;99.90;;;;;;5030588;28;20044;-68
2021/09/08 07:20:11;;;;;;;25.02;17.45;;;18.50;99.90;;;;;;5029501;28;20500;-68
2021/09/08 07:22:38;;;;;;;24.90;16.60;;;18.50;99.90;;;;;;5029752;28;20484;-68
2021/09/08 07:25:07;;;;;;;19.50;13.70;;;18.60;99.90;;;;;;5030443;28;20045;-69
2021/09/08 07:27:35;;;;;;;21.05;16.15;;;18.70;99.90;;;;;;5030925;28;20107;-68
2021/09/08 07:30:03;;;;;;;20.52;14.95;;;18.80;99.90;;;;;;5028870;28;20049;-68
2021/09/08 07:32:30;;;;;;;17.25;13.95;;;18.90;99.90;;;;;;5032956;28;20076;-69
2021/09/08 07:34:58;;;;;;;19.17;14.00;;;18.90;99.90;;;;;;5023675;28;20060;-68
2021/09/08 07:37:27;;;;;;;21.08;15.07;;;19.10;99.90;;;;;;5025310;28;20044;-68
2021/09/08 07:39:54;;;;;;;25.33;18.30;;;19.10;99.90;;;;;;5030453;28;20124;-68
2021/09/08 07:42:23;;;;;;;23.60;17.10;;;19.30;99.90;;;;;;5029694;28;20128;-68
2021/09/08 07:44:51;;;;;;;20.45;15.52;;;19.30;99.90;;;;;;5028631;28;20139;-68
2021/09/08 07:47:20;;;;;;;23.60;16.40;;;19.40;99.90;;;;;;5029551;28;20045;-68
2021/09/08 07:49:49;;;;;;;18.88;13.80;;;19.50;99.90;;;;;;5029381;28;20042;-68
2021/09/08 07:52:17;;;;;;;20.42;14.15;;;19.60;99.90;;;;;;5025306;28;20073;-68
2021/09/08 07:54:44;;;;;;;16.70;13.70;;;19.70;99.90;;;;;;5031916;28;20041;-68
2021/09/08 07:57:12;;;;;;;16.00;12.32;;;19.80;99.90;;;;;;5032870;28;20045;-69
2021/09/08 07:59:39;;;;;;;21.90;14.48;;;19.90;99.90;;;;;;5032964;28;20052;-69
2021/09/08 08:02:06;;;;;;;18.58;13.32;;;20.10;99.90;;;;;;5027624;28;20120;-68
2021/09/08 08:04:34;;;;;;;17.30;13.38;;;20.10;99.90;;;;;;5026148;28;20413;-68
2021/09/08 08:07:02;;;;;;;21.42;14.25;;;20.20;99.90;;;;;;5028043;28;20054;-68
2021/09/08 08:09:29;;;;;;;18.38;12.48;;;20.20;99.90;;;;;;5031298;28;20065;-69
2021/09/08 08:11:56;;;;;;;15.88;12.07;;;20.30;99.90;;;;;;5008788;28;20046;-68
2021/09/08 08:14:24;;;;;;;20.35;13.55;;;20.40;99.90;;;;;;5030016;28;20045;-68
2021/09/08 08:16:52;;;;;;;17.77;13.38;;;20.50;99.90;;;;;;5029027;28;20488;-68
2021/09/08 08:19:20;;;;;;;19.30;13.98;;;20.60;99.90;;;;;;5028895;28;20056;-68
2021/09/08 08:21:48;;;;;;;18.48;13.15;;;20.70;99.90;;;;;;5013168;28;20116;-68
2021/09/08 08:24:15;;;;;;;16.52;12.43;;;20.70;99.90;;;;;;5030564;28;21022;-68
2021/09/08 08:26:43;;;;;;;20.25;14.25;;;20.90;99.90;;;;;;5030501;28;20450;-68
2021/09/08 08:29:10;;;;;;;17.92;13.68;;;20.90;99.90;;;;;;5028104;28;20048;-68
2021/09/08 08:31:37;;;;;;;21.63;13.88;;;21.00;99.90;;;;;;5028181;28;20057;-68
2021/09/08 08:34:04;;;;;;;19.02;13.48;;;21.00;99.90;;;;;;5027900;28;20065;-68
2021/09/08 08:36:31;;;;;;;21.85;14.07;;;21.10;99.90;;;;;;5026482;28;20053;-69
2021/09/08 08:38:59;;;;;;;17.60;13.32;;;21.20;99.90;;;;;;5030120;28;20041;-69
2021/09/08 08:41:26;;;;;;;18.45;13.57;;;21.30;99.90;;;;;;5029023;28;20488;-69
2021/09/08 08:43:54;;;;;;;18.60;12.48;;;21.40;99.90;;;;;;5030253;28;20045;-69
2021/09/08 08:46:21;;;;;;;16.77;12.85;;;21.40;99.90;;;;;;5027946;28;20124;-69
2021/09/08 08:48:49;;;;;;;16.73;12.88;;;21.50;99.90;;;;;;5019100;28;20045;-68
2021/09/08 08:51:17;;;;;;;15.40;12.10;;;21.60;99.90;;;;;;5029607;28;20508;-68
2021/09/08 08:53:44;;;;;;;20.80;13.75;;;21.80;99.90;;;;;;5027959;28;20049;-68
2021/09/08 08:56:11;;;;;;;14.75;11.88;;;21.80;99.90;;;;;;5029372;28;20069;-68
2021/09/08 08:58:39;;;;;;;17.52;13.10;;;21.90;99.90;;;;;;5028938;28;20500;-69
2021/09/08 09:01:16;;;;;;;16.80;13.73;;;22.00;99.90;;;;;;5029778;28;20135;-69
2021/09/08 09:04:05;;;;;;;20.40;13.93;;;22.00;99.90;;;;;;5027669;28;20041;-69
2021/09/08 09:06:35;;;;;;;17.50;12.80;;;22.10;99.90;;;;;;5019024;28;20069;-68
2021/09/08 09:09:18;;;;;;;18.90;13.55;;;22.10;99.90;;;;;;5028363;28;20047;-69
2021/09/08 09:11:49;;;;;;;17.80;12.80;;;22.10;99.90;;;;;;5027416;28;20132;-69
2021/09/08 09:14:18;;;;;;;17.70;12.90;;;22.20;99.90;;;;;;5027383;28;20041;-69
2021/09/08 09:16:46;;;;;;;17.60;13.57;;;22.20;99.90;;;;;;5010610;28;20085;-69
2021/09/08 09:19:13;;;;;;;19.40;12.55;;;22.30;99.90;;;;;;5029557;28;20057;-69
2021/09/08 09:21:41;;;;;;;18.63;13.70;;;22.40;99.90;;;;;;5028410;28;20045;-68
2021/09/08 09:24:09;;;;;;;18.05;13.02;;;22.50;99.90;;;;;;5030687;28;20065;-67
2021/09/08 09:26:40;;;;;;;17.30;12.57;;;22.60;99.90;;;;;;5029311;28;20068;-68
2021/09/08 09:29:11;;;;;;;14.27;11.68;;;22.70;99.90;;;;;;5028850;28;20128;-68
2021/09/08 09:32:01;;;;;;;18.23;12.75;;;22.80;99.90;;;;;;5028908;28;20091;-67
2021/09/08 09:34:30;;;;;;;21.15;13.73;;;23.00;99.90;;;;;;5028723;28;20396;-68
2021/09/08 09:36:59;;;;;;;16.50;12.63;;;23.10;99.90;;;;;;5027519;28;20489;-68
2021/09/08 09:39:32;;;;;;;17.20;12.93;;;23.20;99.90;;;;;;5027507;28;20428;-67
2021/09/08 09:42:11;;;;;;;16.35;12.18;;;23.30;99.90;;;;;;5027876;28;20049;-68
2021/09/08 09:44:41;;;;;;;13.82;10.73;;;23.50;99.90;;;;;;5026903;28;20050;-67
2021/09/08 09:47:08;;;;;;;14.75;11.07;;;23.50;99.90;;;;;;5028186;28;20042;-67
2021/09/08 09:49:36;;;;;;;14.70;10.50;;;23.60;99.90;;;;;;5028427;28;20504;-68
2021/09/08 09:52:05;;;;;;;15.02;11.45;;;23.70;99.90;;;;;;5026147;28;20124;-68
2021/09/08 09:54:33;;;;;;;14.65;10.60;;;23.90;99.90;;;;;;5011763;28;20053;-68
2021/09/08 09:57:01;;;;;;;15.95;10.50;;;24.10;99.90;;;;;;5027656;28;20515;-68
2021/09/08 09:59:29;;;;;;;16.08;10.82;;;24.30;99.90;;;;;;5028112;28;20060;-67
2021/09/08 10:01:57;;;;;;;12.70;8.85;;;24.50;99.90;;;;;;5022174;28;20095;-67
2021/09/08 10:04:25;;;;;;;16.08;9.15;;;24.70;99.90;;;;;;5028080;28;20523;-68
2021/09/08 10:06:56;;;;;;;11.50;8.73;;;24.70;99.90;;;;;;5020116;28;20136;-67
2021/09/08 10:09:26;;;;;;;14.57;9.32;;;25.00;99.90;;;;;;5018863;28;20153;-68
2021/09/08 10:11:55;;;;;;;14.82;9.25;;;25.10;99.90;;;;;;5027734;28;20567;-68
2021/09/08 10:14:29;;;;;;;14.10;8.77;;;25.30;99.90;;;;;;5025948;28;20053;-68
2021/09/08 10:17:02;;;;;;;12.93;8.75;;;25.40;99.90;;;;;;5026426;28;20052;-68
2021/09/08 10:19:31;;;;;;;20.00;8.98;;;25.50;99.90;;;;;;5024264;28;20079;-68
2021/09/08 10:22:06;;;;;;;11.25;8.13;;;25.60;99.90;;;;;;5019423;28;20048;-68
2021/09/08 10:24:34;;;;;;;14.35;10.68;;;25.80;99.90;;;;;;5026889;28;20056;-68
2021/09/08 10:27:22;;;;;;;12.38;9.02;;;26.00;99.90;;;;;;5028258;28;20045;-68
2021/09/08 10:29:54;;;;;;;9.93;7.97;;;26.20;99.90;;;;;;5019571;28;20037;-68
2021/09/08 10:32:22;;;;;;;9.93;7.63;;;26.40;99.90;;;;;;5022562;28;20116;-68
2021/09/08 10:34:50;;;;;;;10.60;7.43;;;26.60;99.90;;;;;;5027127;28;20042;-68
2021/09/08 10:37:19;;;;;;;11.90;7.30;;;26.80;99.90;;;;;;5025509;28;20047;-68
2021/09/08 10:39:47;;;;;;;11.63;8.20;;;26.70;99.90;;;;;;5026009;28;20435;-68
2021/09/08 10:42:15;;;;;;;12.40;7.95;;;26.80;99.90;;;;;;5026876;28;20407;-68
2021/09/08 10:45:25;;;;;;;12.57;8.02;;;27.00;99.90;;;;;;5026261;28;20053;-68
2021/09/08 10:47:54;;;;;;;16.73;9.00;;;27.30;99.90;;;;;;5009287;28;20053;-68
2021/09/08 10:50:42;;;;;;;13.38;9.05;;;27.40;99.90;;;;;;5020233;28;20045;-68
2021/09/08 10:53:21;;;;;;;11.27;8.25;;;27.50;99.90;;;;;;5025709;28;20054;-68
2021/09/08 10:55:52;;;;;;;10.18;8.45;;;27.60;99.90;;;;;;5026995;28;20047;-68
2021/09/08 10:58:20;;;;;;;12.13;8.38;;;27.80;99.90;;;;;;5026331;28;20065;-69
2021/09/08 11:00:49;;;;;;;11.65;7.50;;;28.10;99.90;;;;;;5028226;28;20042;-68
2021/09/08 11:03:17;;;;;;;12.15;7.55;;;28.30;99.90;;;;;;5027679;28;20400;-68
2021/09/08 11:05:55;;;;;;;13.85;7.93;;;28.30;99.90;;;;;;5028646;28;20119;-68
2021/09/08 11:08:30;;;;;;;12.95;7.43;;;28.50;99.90;;;;;;5024623;28;20140;-68
2021/09/08 11:11:16;;;;;;;24.85;8.48;;;28.60;99.90;;;;;;5033626;28;20415;-68
2021/09/08 11:13:45;;;;;;;15.63;7.72;;;28.70;99.90;;;;;;5008902;28;20124;-68
2021/09/08 11:16:18;;;;;;;9.73;7.28;;;28.90;99.90;;;;;;5012537;28;20107;-68
2021/09/08 11:18:45;;;;;;;8.27;6.95;;;29.00;99.90;;;;;;5021311;28;20508;-68
2021/09/08 11:21:15;;;;;;;19.02;8.10;;;29.30;99.90;;;;;;5027700;28;20041;-68
2021/09/08 11:23:47;;;;;;;13.52;8.13;;;29.40;99.90;;;;;;5028443;28;20049;-68
2021/09/08 11:26:14;;;;;;;10.38;7.28;;;29.80;99.80;;;;;;5016138;28;20132;-68
2021/09/08 11:28:41;;;;;;;11.63;8.65;;;29.90;98.90;;;;;;5026804;28;20500;-68
2021/09/08 11:31:14;;;;;;;12.10;7.93;;;30.30;98.30;;;;;;5010159;28;20073;-68
2021/09/08 11:33:42;;;;;;;12.45;8.07;;;30.50;97.40;;;;;;5025668;28;20361;-69
2021/09/08 11:36:15;;;;;;;10.50;7.15;;;30.80;97.20;;;;;;5016469;28;20033;-68
2021/09/08 11:38:46;;;;;;;10.25;7.50;;;30.90;96.00;;;;;;5026766;28;20046;-68
2021/09/08 11:41:15;;;;;;;10.00;6.68;;;31.20;95.60;;;;;;5024394;28;20531;-68
2021/09/08 11:43:44;;;;;;;11.40;7.55;;;31.50;95.10;;;;;;5025758;28;20052;-69
2021/09/08 11:46:27;;;;;;;12.77;7.10;;;31.60;94.80;;;;;;5025151;28;20397;-69
2021/09/08 11:49:02;;;;;;;13.98;7.60;;;31.90;93.40;;;;;;5016777;28;20600;-68
2021/09/08 11:51:34;;;;;;;13.20;8.75;;;32.00;92.10;;;;;;5027102;28;20060;-68
2021/09/08 11:54:04;;;;;;;11.55;6.53;;;32.20;92.00;;;;;;5028713;28;20061;-69
2021/09/08 11:56:32;;;;;;;10.38;6.32;;;32.40;90.30;;;;;;5030267;28;20049;-68
2021/09/08 11:59:02;;;;;;;12.15;6.30;;;32.60;88.30;;;;;;5031288;28;20040;-68
2021/09/08 12:01:34;;;;;;;12.02;6.88;;;32.90;86.10;;;;;;5031065;28;20049;-68
2021/09/08 12:04:04;;;;;;;12.15;6.60;;;32.90;84.50;;;;;;5030684;28;20048;-68
2021/09/08 12:06:33;;;;;;;16.98;10.82;;;33.00;84.50;;;;;;5031262;28;20507;-68
2021/09/08 12:09:03;;;;;;;11.32;7.05;;;33.20;82.60;;;;;;5028831;28;20045;-69
2021/09/08 12:11:42;;;;;;;9.80;6.60;;;33.30;81.70;;;;;;5037824;28;20064;-68
2021/09/08 12:14:28;;;;;;;9.25;6.00;;;33.70;81.00;;;;;;5029165;28;20353;-68
2021/09/08 12:17:07;;;;;;;10.27;6.10;;;33.90;79.90;;;;;;5021362;28;20080;-68
2021/09/08 12:19:35;;;;;;;11.65;7.30;;;34.00;77.40;;;;;;5029850;28;20049;-68
2021/09/08 12:22:04;;;;;;;15.55;7.13;;;34.10;75.80;;;;;;5030351;28;20100;-68
2021/09/08 12:24:55;;;;;;;8.75;6.55;;;33.80;74.90;;;;;;5029269;28;20061;-67
2021/09/08 12:27:51;;;;;;;9.80;6.45;;;33.90;74.40;;;;;;5028885;28;20057;-67
2021/09/08 12:30:18;;;;;;;12.32;6.85;;;34.10;74.70;;;;;;5021332;28;20144;-67
2021/09/08 12:32:50;;;;;;;10.50;6.45;;;34.30;75.10;;;;;;5028834;28;20057;-66
2021/09/08 12:35:39;;;;;;;12.27;7.03;;;34.30;74.00;;;;;;5021536;28;20524;-66
2021/09/08 12:38:34;;;;;;;12.07;6.45;;;34.00;73.90;;;;;;5027594;28;20033;-67